Sunflower Hakata — JL6711 — position and weather

sailwx.info

Track history (hours):
 
Tides and Currents Weather Stations Pressure Air Temp Water Temp Dewpoint Dewpoint Depression Visibility Wind Speed Wind Dir Waves Ship Positions

Sunflower Hakata

Last reported at 2014-Oct-31 22:23 UTC. Time now 2014-Oct-31 23:07 UTC.
Position N 33°38' E 130°24'.

Length 167 m; draft 6.5 m.

Type: Cargo ship. MMSI: 431501764.

Date/timePositionNaut miles runAvg speedWind from/ knotsBaromVisibWave heightAir tempDewpointWater temp
2014-Oct-31 22:23N 33°38' E 130°24'0 0.0
2014-Oct-31 21:17N 33°38' E 130°24'0 0.0
2014-Oct-31 20:33N 33°38' E 130°24'10 9.5
2014-Oct-31 19:33N 33°44' E 130°16'1918.4
2014-Oct-31 18:31N 33°59' E 130°30'45116.0
2014-Oct-30 14:23N 34°60' E 139°32'1619.7
2014-Oct-30 13:33N 35°11' E 139°46'1413.8
2014-Oct-30 12:33N 35°25' E 139°44'12 9.3
2014-Oct-30 11:16N 35°37' E 139°48'0 0.0
2014-Oct-29 21:19N 35°37' E 139°48'1 1.2
2014-Oct-29 20:33N 35°37' E 139°49'1414.4
2014-Oct-29 19:33N 35°23' E 139°46'1312.9
2014-Oct-29 18:33N 35°10' E 139°46'24719.0
2014-Oct-29 05:33N 34°01' E 134°58'2222.1
2014-Oct-29 04:33N 34°23' E 135°00'1312.6
2014-Oct-29 03:33N 34°35' E 134°54'11110.8
2014-Oct-28 17:18N 34°01' E 132°46'10017.3
2014-Oct-28 11:33N 34°03' E 130°46'2121.0
2014-Oct-28 10:32N 33°55' E 130°22'1716.8
2014-Oct-28 09:32N 33°38' E 130°21'3 2.9
2014-Oct-28 08:32N 33°38' E 130°24'0 0.0
2014-Oct-28 07:33N 33°38' E 130°24'0 0.0
2014-Oct-28 06:33N 33°38' E 130°24'0 0.0
2014-Oct-28 05:33N 33°38' E 130°24'0 0.0
2014-Oct-28 04:33N 33°38' E 130°24'0 0.0
2014-Oct-28 03:30N 33°38' E 130°24'0 0.0
2014-Oct-28 02:33N 33°38' E 130°24'0 0.0
2014-Oct-28 01:33N 33°38' E 130°24'0 0.0
2014-Oct-28 00:33N 33°38' E 130°24'0 0.0
2014-Oct-27 23:33N 33°38' E 130°24'0 0.1
2014-Oct-27 22:33N 33°37' E 130°24'0 0.0
2014-Oct-27 21:33N 33°37' E 130°24'0 0.0
2014-Oct-27 20:33N 33°37' E 130°24'0 0.0
2014-Oct-27 19:33N 33°37' E 130°24'0 0.0
2014-Oct-27 18:33N 33°37' E 130°24'0 0.0
2014-Oct-27 17:33N 33°37' E 130°24'0 0.0
2014-Oct-27 16:30N 33°37' E 130°24'0 0.0
2014-Oct-27 15:24N 33°37' E 130°24'0 0.0
2014-Oct-27 14:31N 33°37' E 130°24'0 0.0
2014-Oct-27 13:30N 33°37' E 130°24'0 0.0
2014-Oct-27 12:30N 33°37' E 130°24'0 0.0
2014-Oct-27 10:12N 33°37' E 130°24'0 0.0
2014-Oct-27 09:33N 33°37' E 130°24'46110.5
2014-Oct-25 13:32N 35°00' E 139°33'1818.2
2014-Oct-25 12:33N 35°14' E 139°46'1312.5
2014-Oct-25 11:34N 35°27' E 139°47'10 0.7
2014-Oct-24 20:23N 35°37' E 139°48'8 9.5
2014-Oct-24 19:33N 35°30' E 139°52'1414.0
2014-Oct-24 18:33N 35°17' E 139°45'1615.7
2014-Oct-24 17:33N 35°02' E 139°40'23918.4
2014-Oct-24 04:34N 34°04' E 134°59'2323.0
2014-Oct-24 03:33N 34°27' E 135°01'1212.0
2014-Oct-24 02:33N 34°33' E 134°48'10411.6
2014-Oct-23 17:33N 34°02' E 132°47'10016.7
2014-Oct-23 11:32N 34°02' E 130°46'2121.3
2014-Oct-23 10:33N 33°56' E 130°23'1817.5
2014-Oct-23 09:33N 33°39' E 130°18'5 5.0
2014-Oct-23 08:33N 33°38' E 130°24'0 0.0
2014-Oct-23 07:31N 33°38' E 130°24'0 0.0
2014-Oct-23 06:29N 33°38' E 130°24'0 0.0
2014-Oct-23 05:31N 33°38' E 130°24'0 0.0
2014-Oct-23 04:32N 33°38' E 130°24'0 0.0
2014-Oct-23 03:29N 33°38' E 130°24'0 0.0
2014-Oct-23 02:32N 33°38' E 130°24'0 0.0
2014-Oct-23 01:31N 33°38' E 130°24'0 0.0
2014-Oct-23 00:32N 33°38' E 130°24'0 0.0
2014-Oct-22 23:32N 33°38' E 130°24'0 0.0
2014-Oct-22 22:31N 33°38' E 130°24'0 0.0
2014-Oct-22 21:32N 33°38' E 130°24'0 0.0
2014-Oct-22 20:32N 33°38' E 130°24'8 8.7
2014-Oct-22 19:33N 33°42' E 130°15'2019.4
2014-Oct-22 18:32N 33°58' E 130°28'  
Track history (hours):
 
Tides and Currents Weather Stations Pressure Air Temp Water Temp Dewpoint Dewpoint Depression Visibility Wind Speed Wind Dir Waves Ship Positions

Sunflower Hakata

Last reported at 2014-Oct-31 22:23 UTC. Time now 2014-Oct-31 23:07 UTC.
Position N 33°38' E 130°24'.

Length 167 m; draft 6.5 m.

Type: Cargo ship. MMSI: 431501764.

Date/timePositionNaut miles runAvg speedWind from/ knotsBaromVisibWave heightAir tempDewpointWater temp
2014-Oct-31 22:23N 33°38' E 130°24'0 0.0
2014-Oct-31 21:17N 33°38' E 130°24'0 0.0
2014-Oct-31 20:33N 33°38' E 130°24'10 9.5
2014-Oct-31 19:33N 33°44' E 130°16'1918.4
2014-Oct-31 18:31N 33°59' E 130°30'45116.0
2014-Oct-30 14:23N 34°60' E 139°32'1619.7
2014-Oct-30 13:33N 35°11' E 139°46'1413.8
2014-Oct-30 12:33N 35°25' E 139°44'12 9.3
2014-Oct-30 11:16N 35°37' E 139°48'0 0.0
2014-Oct-29 21:19N 35°37' E 139°48'1 1.2
2014-Oct-29 20:33N 35°37' E 139°49'1414.4
2014-Oct-29 19:33N 35°23' E 139°46'1312.9
2014-Oct-29 18:33N 35°10' E 139°46'24719.0
2014-Oct-29 05:33N 34°01' E 134°58'2222.1
2014-Oct-29 04:33N 34°23' E 135°00'1312.6
2014-Oct-29 03:33N 34°35' E 134°54'11110.8
2014-Oct-28 17:18N 34°01' E 132°46'10017.3
2014-Oct-28 11:33N 34°03' E 130°46'2121.0
2014-Oct-28 10:32N 33°55' E 130°22'1716.8
2014-Oct-28 09:32N 33°38' E 130°21'3 2.9
2014-Oct-28 08:32N 33°38' E 130°24'0 0.0
2014-Oct-28 07:33N 33°38' E 130°24'0 0.0
2014-Oct-28 06:33N 33°38' E 130°24'0 0.0
2014-Oct-28 05:33N 33°38' E 130°24'0 0.0
2014-Oct-28 04:33N 33°38' E 130°24'0 0.0
2014-Oct-28 03:30N 33°38' E 130°24'0 0.0
2014-Oct-28 02:33N 33°38' E 130°24'0 0.0
2014-Oct-28 01:33N 33°38' E 130°24'0 0.0
2014-Oct-28 00:33N 33°38' E 130°24'0 0.0
2014-Oct-27 23:33N 33°38' E 130°24'0 0.1
2014-Oct-27 22:33N 33°37' E 130°24'0 0.0
2014-Oct-27 21:33N 33°37' E 130°24'0 0.0
2014-Oct-27 20:33N 33°37' E 130°24'0 0.0
2014-Oct-27 19:33N 33°37' E 130°24'0 0.0
2014-Oct-27 18:33N 33°37' E 130°24'0 0.0
2014-Oct-27 17:33N 33°37' E 130°24'0 0.0
2014-Oct-27 16:30N 33°37' E 130°24'0 0.0
2014-Oct-27 15:24N 33°37' E 130°24'0 0.0
2014-Oct-27 14:31N 33°37' E 130°24'0 0.0
2014-Oct-27 13:30N 33°37' E 130°24'0 0.0
2014-Oct-27 12:30N 33°37' E 130°24'0 0.0
2014-Oct-27 10:12N 33°37' E 130°24'0 0.0
2014-Oct-27 09:33N 33°37' E 130°24'46110.5
2014-Oct-25 13:32N 35°00' E 139°33'1818.2
2014-Oct-25 12:33N 35°14' E 139°46'1312.5
2014-Oct-25 11:34N 35°27' E 139°47'10 0.7
2014-Oct-24 20:23N 35°37' E 139°48'8 9.5
2014-Oct-24 19:33N 35°30' E 139°52'1414.0
2014-Oct-24 18:33N 35°17' E 139°45'1615.7
2014-Oct-24 17:33N 35°02' E 139°40'23918.4
2014-Oct-24 04:34N 34°04' E 134°59'2323.0
2014-Oct-24 03:33N 34°27' E 135°01'1212.0
2014-Oct-24 02:33N 34°33' E 134°48'10411.6
2014-Oct-23 17:33N 34°02' E 132°47'10016.7
2014-Oct-23 11:32N 34°02' E 130°46'2121.3
2014-Oct-23 10:33N 33°56' E 130°23'1817.5
2014-Oct-23 09:33N 33°39' E 130°18'5 5.0
2014-Oct-23 08:33N 33°38' E 130°24'0 0.0
2014-Oct-23 07:31N 33°38' E 130°24'0 0.0
2014-Oct-23 06:29N 33°38' E 130°24'0 0.0
2014-Oct-23 05:31N 33°38' E 130°24'0 0.0
2014-Oct-23 04:32N 33°38' E 130°24'0 0.0
2014-Oct-23 03:29N 33°38' E 130°24'0 0.0
2014-Oct-23 02:32N 33°38' E 130°24'0 0.0
2014-Oct-23 01:31N 33°38' E 130°24'0 0.0
2014-Oct-23 00:32N 33°38' E 130°24'0 0.0
2014-Oct-22 23:32N 33°38' E 130°24'0 0.0
2014-Oct-22 22:31N 33°38' E 130°24'0 0.0
2014-Oct-22 21:32N 33°38' E 130°24'0 0.0
2014-Oct-22 20:32N 33°38' E 130°24'8 8.7
2014-Oct-22 19:33N 33°42' E 130°15'2019.4
2014-Oct-22 18:32N 33°58' E 130°28'  

Dump ship's entire track history